Time;durP1;ratioP1;P1;durP2;ratioP2;P2;SDS_P1;SDS_P2;PMS_P1;PMS_P2;Temp;Humidity;BMP_temperature;BMP_pressure;BME280_temperature;BME280_humidity;BME280_pressure;Samples;Min_cycle;Max_cycle;Signal;HPM_P1;HPM_P2
2024/01/30 00:00:54;;;;;;;19.08;13.02;;;;;;;7.12;100.00;102479.59;4811348;29;20475;-77
2024/01/30 00:03:19;;;;;;;22.52;13.55;;;;;;;7.06;100.00;102474.47;4800412;29;20038;-78
2024/01/30 00:05:45;;;;;;;22.50;13.70;;;;;;;7.07;100.00;102476.94;4798372;29;20011;-78
2024/01/30 00:08:10;;;;;;;19.45;12.10;;;;;;;7.04;100.00;102472.03;4796872;29;20072;-78
2024/01/30 00:10:36;;;;;;;24.92;13.55;;;;;;;7.05;100.00;102465.31;4809213;29;20034;-78
2024/01/30 00:13:02;;;;;;;19.83;12.35;;;;;;;7.03;100.00;102470.38;4813171;29;20416;-77
2024/01/30 00:15:27;;;;;;;22.40;14.07;;;;;;;7.01;100.00;102464.28;4798574;29;20407;-78
2024/01/30 00:17:53;;;;;;;25.10;12.90;;;;;;;7.02;100.00;102465.94;4802811;29;20039;-76
2024/01/30 00:20:18;;;;;;;22.40;13.38;;;;;;;7.04;100.00;102469.25;4800627;29;20054;-77
2024/01/30 00:22:44;;;;;;;20.25;13.20;;;;;;;7.04;100.00;102465.59;4793530;29;20035;-78
2024/01/30 00:25:09;;;;;;;24.25;14.80;;;;;;;6.97;100.00;102470.81;4796474;29;20038;-77
2024/01/30 00:27:35;;;;;;;22.73;13.75;;;;;;;6.94;100.00;102469.47;4795487;29;20192;-78
2024/01/30 00:30:00;;;;;;;23.05;13.95;;;;;;;6.93;100.00;102467.81;4800077;29;20035;-78
2024/01/30 00:32:25;;;;;;;24.90;12.95;;;;;;;6.94;100.00;102466.69;4800863;29;20049;-78
2024/01/30 00:34:51;;;;;;;21.92;14.07;;;;;;;6.90;100.00;102468.44;4796266;29;20039;-78
2024/01/30 00:37:16;;;;;;;18.13;13.15;;;;;;;6.89;100.00;102464.00;4796016;29;20103;-77
2024/01/30 00:39:41;;;;;;;19.90;13.43;;;;;;;6.91;100.00;102461.72;4796658;29;20023;-77
2024/01/30 00:42:07;;;;;;;26.40;13.30;;;;;;;6.83;100.00;102456.91;4802033;29;20034;-77
2024/01/30 00:44:37;;;;;;;22.13;13.63;;;;;;;6.87;100.00;102461.56;4795995;29;20095;-76
2024/01/30 00:47:02;;;;;;;22.63;13.68;;;;;;;6.89;100.00;102464.00;4797193;29;20103;-78
2024/01/30 00:49:28;;;;;;;21.38;13.00;;;;;;;6.88;100.00;102462.38;4800802;29;20113;-78
2024/01/30 00:51:53;;;;;;;24.48;13.60;;;;;;;6.82;100.00;102452.50;4814236;29;20117;-78
2024/01/30 00:54:18;;;;;;;24.05;14.45;;;;;;;6.86;100.00;102459.09;4801115;29;20125;-77
2024/01/30 00:56:44;;;;;;;24.42;14.23;;;;;;;6.81;100.00;102456.41;4796622;29;20035;-77
2024/01/30 00:59:09;;;;;;;22.00;14.27;;;;;;;6.81;100.00;102456.41;4799317;29;20125;-78
2024/01/30 01:01:34;;;;;;;23.10;13.75;;;;;;;6.77;100.00;102463.72;4814834;29;20121;-78
2024/01/30 01:04:00;;;;;;;19.65;12.57;;;;;;;6.79;100.00;102453.09;4795637;29;20091;-74
2024/01/30 01:06:25;;;;;;;21.05;13.45;;;;;;;6.79;100.00;102456.75;4794322;29;20583;-74
2024/01/30 01:08:50;;;;;;;20.98;12.75;;;;;;;6.70;100.00;102456.66;4798104;29;20031;-74
2024/01/30 01:11:16;;;;;;;22.40;13.60;;;;;;;6.80;100.00;102454.78;4804067;29;20099;-73
2024/01/30 01:13:41;;;;;;;21.50;13.50;;;;;;;6.80;100.00;102449.19;4797173;29;20103;-75
2024/01/30 01:16:06;;;;;;;23.15;13.10;;;;;;;6.80;100.00;102449.19;4794659;29;20045;-72
2024/01/30 01:18:32;;;;;;;21.65;13.98;;;;;;;6.82;100.00;102452.50;4808406;29;20035;-72
2024/01/30 01:20:57;;;;;;;22.52;12.48;;;;;;;6.78;100.00;102440.34;4795749;29;20113;-74
2024/01/30 01:23:22;;;;;;;20.67;12.40;;;;;;;6.81;100.00;102440.56;4791893;29;20039;-73
2024/01/30 01:25:48;;;;;;;20.23;12.52;;;;;;;6.74;100.00;102436.53;4796542;29;20034;-74
2024/01/30 01:28:13;;;;;;;18.33;12.10;;;;;;;6.74;100.00;102433.75;4789739;29;20035;-73
2024/01/30 01:30:39;;;;;;;18.65;12.45;;;;;;;6.77;100.00;102431.19;4790343;29;20084;-73
2024/01/30 01:33:04;;;;;;;20.42;12.55;;;;;;;6.75;100.00;102438.19;4806403;29;20692;-75
2024/01/30 01:35:29;;;;;;;21.73;11.98;;;;;;;6.70;100.00;102434.41;4790675;29;20043;-73
2024/01/30 01:37:55;;;;;;;24.05;13.00;;;;;;;6.74;100.00;102430.97;4792904;29;20050;-74
2024/01/30 01:40:24;;;;;;;20.63;12.90;;;;;;;6.74;100.00;102430.97;4790707;29;20035;-73
2024/01/30 01:42:56;;;;;;;19.63;12.50;;;;;;;6.74;100.00;102440.13;4809193;29;20118;-74
2024/01/30 01:45:21;;;;;;;22.50;13.65;;;;;;;6.73;100.00;102435.72;4805325;29;20039;-72
2024/01/30 01:47:50;;;;;;;25.48;13.93;;;;;;;6.70;100.00;102433.56;4788057;29;20026;-74
2024/01/30 01:50:19;;;;;;;18.63;13.10;;;;;;;6.72;100.00;102421.00;4790413;29;20046;-75
2024/01/30 01:52:48;;;;;;;17.23;10.93;;;;;;;6.69;100.00;102413.25;4796751;29;20484;-74
2024/01/30 01:55:16;;;;;;;19.35;12.75;;;;;;;6.74;100.00;102411.50;4789184;29;20400;-75
2024/01/30 01:57:41;;;;;;;22.58;12.60;;;;;;;6.75;100.00;102418.72;4790584;29;20176;-73
2024/01/30 02:00:10;;;;;;;17.25;12.50;;;;;;;6.71;100.00;102412.94;4789439;29;20540;-75
2024/01/30 02:02:36;;;;;;;19.50;12.38;;;;;;;6.69;100.00;102421.59;4795863;29;20041;-73
2024/01/30 02:05:02;;;;;;;19.05;12.55;;;;;;;6.67;100.00;102409.97;4792011;29;20023;-72
2024/01/30 02:07:30;;;;;;;17.27;11.88;;;;;;;6.64;100.00;102418.97;4793892;29;20039;-73
2024/01/30 02:09:56;;;;;;;22.77;12.50;;;;;;;6.65;100.00;102415.03;4796401;29;20046;-74
2024/01/30 02:12:21;;;;;;;19.98;11.93;;;;;;;6.68;100.00;102419.97;4794946;29;20039;-74
2024/01/30 02:14:47;;;;;;;19.75;11.75;;;;;;;6.68;100.00;102419.97;4798725;29;20135;-78
2024/01/30 02:17:13;;;;;;;15.98;11.60;;;;;;;6.66;100.00;102411.13;4799891;29;20083;-77
2024/01/30 02:19:39;;;;;;;17.58;11.30;;;;;;;6.62;100.00;102407.31;4799659;29;20047;-77
2024/01/30 02:22:05;;;;;;;18.52;10.35;;;;;;;6.65;100.00;102401.09;4813096;29;20050;-76
2024/01/30 02:24:31;;;;;;;24.05;13.35;;;;;;;6.64;100.00;102402.25;4807675;29;20061;-77
2024/01/30 02:26:56;;;;;;;20.02;11.63;;;;;;;6.60;100.00;102398.47;4818659;29;20035;-78
2024/01/30 02:29:22;;;;;;;16.60;11.40;;;;;;;6.61;100.00;102394.53;4804897;29;20107;-78
2024/01/30 02:31:47;;;;;;;19.70;11.95;;;;;;;6.57;100.00;102390.72;4809352;29;20042;-78
2024/01/30 02:34:13;;;;;;;19.38;11.93;;;;;;;6.57;100.00;102387.94;4800778;29;20064;-78
2024/01/30 02:36:41;;;;;;;20.20;12.70;;;;;;;6.56;100.00;102383.53;4802464;29;20031;-77
2024/01/30 02:39:07;;;;;;;20.40;11.82;;;;;;;6.54;100.00;102383.00;4802566;29;20046;-77
2024/01/30 02:41:32;;;;;;;23.55;12.38;;;;;;;6.53;100.00;102389.69;4800228;29;20035;-77
2024/01/30 02:43:58;;;;;;;21.02;11.70;;;;;;;6.56;100.00;102383.53;4805794;29;20166;-77
2024/01/30 02:46:23;;;;;;;19.08;11.73;;;;;;;6.53;100.00;102395.25;4816035;29;20042;-77
2024/01/30 02:48:48;;;;;;;21.52;12.27;;;;;;;6.55;100.00;102390.22;4805605;29;20071;-78
2024/01/30 02:51:14;;;;;;;19.77;11.05;;;;;;;6.58;100.00;102389.59;4804607;29;20035;-77
2024/01/30 02:53:39;;;;;;;17.42;10.30;;;;;;;6.59;100.00;102395.97;4817666;29;20042;-78
2024/01/30 02:56:05;;;;;;;18.60;11.38;;;;;;;6.56;100.00;102383.53;4803054;29;20595;-78
2024/01/30 02:58:31;;;;;;;22.63;12.07;;;;;;;6.55;100.00;102381.88;4799753;29;20034;-77
2024/01/30 03:00:56;;;;;;;19.38;11.80;;;;;;;6.57;100.00;102392.69;4799495;29;20622;-77
2024/01/30 03:03:21;;;;;;;17.35;11.68;;;;;;;6.55;100.00;102383.84;4815454;29;20042;-78
2024/01/30 03:05:47;;;;;;;19.58;11.77;;;;;;;6.54;100.00;102384.97;4803528;29;20039;-78
2024/01/30 03:08:12;;;;;;;16.73;10.88;;;;;;;6.53;100.00;102389.69;4814767;29;20035;-77
2024/01/30 03:10:37;;;;;;;15.73;11.18;;;;;;;6.55;100.00;102381.88;4812576;29;20087;-78
2024/01/30 03:13:03;;;;;;;20.02;11.35;;;;;;;6.53;100.00;102384.13;4804310;29;20048;-77
2024/01/30 03:15:28;;;;;;;22.15;12.05;;;;;;;6.50;100.00;102380.03;4802583;29;20521;-78
2024/01/30 03:17:54;;;;;;;18.52;12.30;;;;;;;6.54;100.00;102379.41;4803511;29;20128;-77
2024/01/30 03:20:19;;;;;;;24.77;11.75;;;;;;;6.51;100.00;102367.78;4807243;29;20069;-78
2024/01/30 03:22:45;;;;;;;16.90;11.15;;;;;;;6.51;100.00;102364.16;4803718;29;20142;-77
2024/01/30 03:25:10;;;;;;;17.30;11.40;;;;;;;6.53;100.00;102350.75;4798722;29;20473;-74
2024/01/30 03:27:35;;;;;;;20.27;11.98;;;;;;;6.52;100.00;102349.13;4794634;29;21599;-74
2024/01/30 03:30:01;;;;;;;16.83;11.50;;;;;;;6.58;100.00;102355.38;4789472;29;20030;-77
2024/01/30 03:32:27;;;;;;;19.27;10.68;;;;;;;6.57;100.00;102351.78;4797559;29;20027;-74
2024/01/30 03:34:52;;;;;;;18.52;12.63;;;;;;;6.59;100.00;102338.38;4796546;29;20133;-73
2024/01/30 03:37:17;;;;;;;20.42;11.30;;;;;;;6.60;100.00;102337.25;4805545;29;20063;-74
2024/01/30 03:39:43;;;;;;;14.40;10.63;;;;;;;6.61;100.00;102338.88;4791321;29;20369;-75
2024/01/30 03:42:08;;;;;;;15.40;10.02;;;;;;;6.60;100.00;102342.81;4791354;29;20570;-73
2024/01/30 03:44:33;;;;;;;20.23;11.60;;;;;;;6.65;100.00;102334.31;4807405;29;20536;-73
2024/01/30 03:46:59;;;;;;;22.05;12.85;;;;;;;6.63;100.00;102328.25;4807775;29;20027;-74
2024/01/30 03:49:24;;;;;;;18.00;11.65;;;;;;;6.67;100.00;102320.91;4800786;29;20090;-73
2024/01/30 03:51:49;;;;;;;18.38;12.40;;;;;;;6.66;100.00;102326.78;4796997;29;20073;-73
2024/01/30 03:54:15;;;;;;;20.05;12.30;;;;;;;6.67;100.00;102329.28;4792643;29;20553;-74
2024/01/30 03:56:40;;;;;;;21.75;12.57;;;;;;;6.68;100.00;102344.00;4794950;29;20118;-74
2024/01/30 03:59:05;;;;;;;18.20;11.68;;;;;;;6.72;100.00;102347.78;4793588;29;20031;-74
2024/01/30 04:01:31;;;;;;;20.20;11.55;;;;;;;6.72;100.00;102339.44;4791469;29;20043;-74
2024/01/30 04:03:56;;;;;;;19.92;12.93;;;;;;;6.72;100.00;102315.25;4799169;29;20034;-73
2024/01/30 04:06:21;;;;;;;19.50;11.30;;;;;;;6.75;100.00;102312.97;4795165;29;20045;-74
2024/01/30 04:08:47;;;;;;;19.02;12.10;;;;;;;6.74;100.00;102301.00;4797451;29;20549;-73
2024/01/30 04:11:12;;;;;;;16.50;11.52;;;;;;;6.77;100.00;102305.09;4796689;29;20625;-73
2024/01/30 04:13:37;;;;;;;17.45;10.80;;;;;;;6.75;100.00;102302.66;4795823;29;20027;-73
2024/01/30 04:16:03;;;;;;;21.20;12.85;;;;;;;6.79;100.00;102309.22;4797902;29;20046;-76
2024/01/30 04:18:29;;;;;;;19.13;12.25;;;;;;;6.70;100.00;102306.41;4796474;29;20102;-74
2024/01/30 04:20:55;;;;;;;17.27;11.13;;;;;;;6.75;100.00;102315.75;4795309;29;20066;-73
2024/01/30 04:23:20;;;;;;;18.60;12.00;;;;;;;6.80;100.00;102312.84;4789169;29;20640;-75
2024/01/30 04:25:46;;;;;;;18.02;11.60;;;;;;;6.82;100.00;102299.41;4810533;29;20566;-75
2024/01/30 04:28:12;;;;;;;14.85;10.15;;;;;;;6.83;100.00;102312.19;4792044;29;20054;-73
2024/01/30 04:30:38;;;;;;;18.50;11.07;;;;;;;6.78;100.00;102296.44;4792202;29;20035;-73
2024/01/30 04:33:04;;;;;;;20.08;9.98;;;;;;;6.86;100.00;102297.66;4806330;29;20031;-73
2024/01/30 04:35:29;;;;;;;17.90;11.07;;;;;;;6.89;100.00;102297.84;4797681;29;20454;-74
2024/01/30 04:37:54;;;;;;;18.23;10.40;;;;;;;6.91;100.00;102300.28;4799157;29;20050;-74
2024/01/30 04:40:21;;;;;;;14.75;10.27;;;;;;;6.92;100.00;102308.31;4794221;29;20109;-73
2024/01/30 04:42:46;;;;;;;16.52;10.10;;;;;;;6.90;100.00;102305.03;4795600;29;20389;-75
2024/01/30 04:45:12;;;;;;;21.08;10.75;;;;;;;6.96;100.00;102300.16;4794388;29;20058;-74
2024/01/30 04:47:37;;;;;;;15.80;10.68;;;;;;;6.94;100.00;102302.44;4808179;29;20027;-74
2024/01/30 04:50:04;;;;;;;19.88;11.38;;;;;;;6.93;100.00;102306.34;4795235;29;20070;-73
2024/01/30 04:52:30;;;;;;;18.08;11.43;;;;;;;6.95;100.00;102303.25;4800631;29;20499;-73
2024/01/30 04:54:55;;;;;;;22.45;11.75;;;;;;;6.91;100.00;102311.41;4808118;29;20126;-73
2024/01/30 04:57:20;;;;;;;19.35;10.45;;;;;;;6.95;100.00;102312.44;4791171;29;20070;-73
2024/01/30 04:59:46;;;;;;;20.98;11.40;;;;;;;6.98;100.00;102317.38;4785529;29;20131;-76
2024/01/30 05:02:11;;;;;;;20.48;10.85;;;;;;;6.99;100.00;102316.22;4792764;29;20045;-74
2024/01/30 05:04:36;;;;;;;19.17;10.73;;;;;;;7.03;100.00;102316.41;4793698;29;20059;-73
2024/01/30 05:07:02;;;;;;;18.85;10.90;;;;;;;7.04;100.00;102316.09;4805970;29;20110;-75
2024/01/30 05:09:28;;;;;;;18.20;10.95;;;;;;;7.02;100.00;102307.25;4810034;29;20488;-73
2024/01/30 05:11:53;;;;;;;15.90;10.25;;;;;;;7.03;100.00;102308.88;4804978;29;20069;-73
2024/01/30 05:14:19;;;;;;;13.88;10.30;;;;;;;7.04;100.00;102304.97;4793955;29;20074;-73
2024/01/30 05:16:46;;;;;;;21.67;11.73;;;;;;;7.04;100.00;102306.91;4793998;29;20046;-75
2024/01/30 05:19:15;;;;;;;21.20;12.05;;;;;;;7.01;100.00;102300.03;4794232;29;20341;-74
2024/01/30 05:21:41;;;;;;;18.50;10.80;;;;;;;7.05;100.00;102284.31;4791577;29;20429;-72
2024/01/30 05:24:07;;;;;;;17.70;10.32;;;;;;;7.01;100.00;102282.50;4792497;29;20031;-74
2024/01/30 05:26:32;;;;;;;18.50;10.85;;;;;;;7.04;100.00;102282.69;4789809;29;20030;-74
2024/01/30 05:28:58;;;;;;;14.15;9.80;;;;;;;7.05;100.00;102301.03;4804984;29;20103;-76
2024/01/30 05:31:25;;;;;;;18.17;10.90;;;;;;;7.04;100.00;102298.56;4790454;29;20045;-74
2024/01/30 05:33:51;;;;;;;16.90;10.82;;;;;;;7.03;100.00;102292.19;4805421;29;20584;-75
2024/01/30 05:36:16;;;;;;;19.92;11.45;;;;;;;7.10;100.00;102286.16;4796541;29;20043;-74
2024/01/30 05:38:42;;;;;;;16.20;10.80;;;;;;;7.10;100.00;102312.06;4806680;29;20027;-74
2024/01/30 05:41:08;;;;;;;18.00;11.57;;;;;;;7.09;100.00;102307.59;4804284;29;20035;-75
2024/01/30 05:43:33;;;;;;;14.32;10.40;;;;;;;7.09;100.00;102313.19;4790085;29;20110;-76
2024/01/30 05:45:59;;;;;;;17.67;10.45;;;;;;;7.09;100.00;102323.50;4789356;29;20386;-73
2024/01/30 05:48:24;;;;;;;17.00;10.30;;;;;;;7.01;100.00;102321.47;4791205;29;20058;-73
2024/01/30 05:50:49;;;;;;;16.08;10.95;;;;;;;6.99;100.00;102316.22;4794304;29;20035;-74
2024/01/30 05:53:15;;;;;;;20.38;11.52;;;;;;;7.00;100.00;102320.66;4793514;29;20094;-73
2024/01/30 05:55:40;;;;;;;19.75;11.18;;;;;;;6.99;100.00;102320.97;4793192;29;20086;-73
2024/01/30 05:58:06;;;;;;;14.40;9.73;;;;;;;6.97;100.00;102321.28;4795805;29;20076;-73
2024/01/30 06:00:31;;;;;;;16.23;11.32;;;;;;;6.98;100.00;102311.81;4795402;29;20604;-73
2024/01/30 06:02:56;;;;;;;16.50;11.48;;;;;;;7.01;100.00;102307.56;4794594;29;20034;-74
2024/01/30 06:05:22;;;;;;;17.80;10.23;;;;;;;7.01;100.00;102300.03;4791440;29;20515;-75
2024/01/30 06:07:47;;;;;;;18.38;11.30;;;;;;;7.00;100.00;102292.81;4804386;29;20122;-74
2024/01/30 06:10:12;;;;;;;17.02;10.05;;;;;;;7.03;100.00;102297.75;4797836;29;20029;-74
2024/01/30 06:12:38;;;;;;;19.02;11.18;;;;;;;7.01;100.00;102288.88;4792837;29;20037;-75
2024/01/30 06:15:04;;;;;;;17.55;11.00;;;;;;;7.03;100.00;102283.81;4759698;29;1163187;-74
2024/01/30 06:17:29;;;;;;;17.42;11.85;;;;;;;7.04;100.00;102277.13;4790410;29;20068;-74
2024/01/30 06:19:55;;;;;;;19.13;11.55;;;;;;;7.02;100.00;102279.41;4792570;29;20061;-76
2024/01/30 06:22:20;;;;;;;17.73;10.77;;;;;;;7.06;100.00;102282.34;4796365;29;20111;-74
2024/01/30 06:24:47;;;;;;;16.45;9.52;;;;;;;7.09;100.00;102304.81;4794344;29;20058;-75
2024/01/30 06:27:13;;;;;;;16.52;11.00;;;;;;;7.06;100.00;102285.97;4791957;29;20146;-74
2024/01/30 06:29:39;;;;;;;15.82;9.57;;;;;;;7.03;100.00;102281.03;4790075;29;20544;-73
2024/01/30 06:32:05;;;;;;;15.95;8.73;;;;;;;7.06;100.00;102269.28;4790025;29;20125;-73
2024/01/30 06:34:30;;;;;;;14.73;10.32;;;;;;;7.07;100.00;102270.91;4791626;29;20288;-76
2024/01/30 06:36:56;;;;;;;20.55;11.25;;;;;;;7.15;100.00;102260.97;4790073;29;20741;-74
2024/01/30 06:39:21;;;;;;;17.83;10.35;;;;;;;7.13;100.00;102269.63;4791322;29;20038;-74
2024/01/30 06:41:46;;;;;;;18.23;10.85;;;;;;;7.10;100.00;102267.50;4792685;29;20035;-74
2024/01/30 06:44:12;;;;;;;22.10;11.23;;;;;;;7.86;100.00;102274.78;4792950;29;20031;-76
2024/01/30 06:46:38;;;;;;;19.45;9.52;;;;;;;7.64;100.00;102283.25;4793340;29;20777;-75
2024/01/30 06:49:04;;;;;;;14.95;9.55;;;;;;;7.41;100.00;102280.56;4788391;29;21289;-74
2024/01/30 06:51:29;;;;;;;18.70;10.38;;;;;;;7.31;100.00;102300.34;4790667;29;20036;-75
2024/01/30 06:53:54;;;;;;;20.77;11.80;;;;;;;7.36;100.00;102300.22;4795815;29;20325;-77
2024/01/30 06:56:20;;;;;;;14.18;9.05;;;;;;;7.34;100.00;102296.91;4800715;29;20038;-77
2024/01/30 06:58:52;;;;;;;14.95;9.30;;;;;;;7.34;100.00;102285.78;4800737;29;20575;-77
2024/01/30 07:01:17;;;;;;;18.85;10.98;;;;;;;7.33;100.00;102298.06;4794509;29;20039;-77
2024/01/30 07:03:43;;;;;;;15.18;9.65;;;;;;;7.33;100.00;102300.84;4794118;29;20088;-77
2024/01/30 07:06:10;;;;;;;15.38;9.48;;;;;;;7.32;100.00;102283.31;4791496;29;20087;-77
2024/01/30 07:08:37;;;;;;;15.40;9.75;;;;;;;7.40;100.00;102283.66;4782466;29;20043;-76
2024/01/30 07:11:02;;;;;;;16.92;10.45;;;;;;;8.01;100.00;102293.03;4788701;29;20167;-75
2024/01/30 07:13:28;;;;;;;17.48;10.65;;;;;;;7.67;100.00;102279.81;4797159;29;20031;-75
2024/01/30 07:15:54;;;;;;;20.52;9.60;;;;;;;7.52;100.00;102276.31;4795639;29;20065;-75
2024/01/30 07:18:19;;;;;;;13.93;8.80;;;;;;;7.42;100.00;102285.00;4790026;29;20043;-75
2024/01/30 07:20:49;;;;;;;15.05;10.00;;;;;;;7.44;100.00;102284.66;4792269;29;20637;-76
2024/01/30 07:23:17;;;;;;;15.45;9.65;;;;;;;7.46;100.00;102297.16;4790953;29;20047;-76
2024/01/30 07:25:43;;;;;;;15.23;8.70;;;;;;;7.41;100.00;102296.47;4792299;29;20039;-75
2024/01/30 07:28:16;;;;;;;15.38;9.98;;;;;;;7.47;100.00;102301.56;4794645;29;20031;-75
2024/01/30 07:30:42;;;;;;;16.52;8.68;;;;;;;7.48;100.00;102303.22;4795792;29;20051;-76
2024/01/30 07:33:08;;;;;;;16.20;10.45;;;;;;;7.45;100.00;102298.28;4790407;29;20047;-76
2024/01/30 07:35:34;;;;;;;14.32;10.10;;;;;;;7.39;100.00;102305.13;4799862;29;20034;-76
2024/01/30 07:37:59;;;;;;;13.13;8.73;;;;;;;7.38;100.00;102306.28;4798085;29;20043;-76
2024/01/30 07:40:24;;;;;;;17.08;9.40;;;;;;;7.42;100.00;102298.94;4802833;29;20107;-76
2024/01/30 07:42:52;;;;;;;18.17;9.38;;;;;;;7.44;100.00;102302.22;4793763;29;20027;-76
2024/01/30 07:45:22;;;;;;;16.77;10.38;;;;;;;7.57;100.00;102310.75;4799753;29;20129;-76
2024/01/30 07:47:51;;;;;;;15.15;9.05;;;;;;;7.54;100.00;102303.88;4797811;29;20456;-76
2024/01/30 07:50:16;;;;;;;16.60;9.68;;;;;;;7.57;100.00;102311.59;4799852;29;20043;-76
2024/01/30 07:52:43;;;;;;;16.20;9.75;;;;;;;7.56;100.00;102293.22;4793858;29;20043;-76
2024/01/30 07:55:09;;;;;;;16.88;10.02;;;;;;;7.61;100.00;102289.47;4800288;29;20554;-76
2024/01/30 07:57:34;;;;;;;15.25;9.27;;;;;;;7.54;100.00;102295.50;4793514;29;20031;-76
2024/01/30 08:00:00;;;;;;;16.48;9.13;;;;;;;7.59;100.00;102314.03;4798657;29;20983;-76
2024/01/30 08:02:26;;;;;;;15.80;9.70;;;;;;;7.59;100.00;102300.13;4795034;29;20092;-76
2024/01/30 08:04:51;;;;;;;16.75;9.38;;;;;;;7.59;100.00;102300.97;4799882;29;20498;-74
2024/01/30 08:07:17;;;;;;;14.50;9.40;;;;;;;7.56;100.00;102320.28;4788130;29;20130;-75
2024/01/30 08:09:43;;;;;;;15.68;8.77;;;;;;;7.60;100.00;102330.44;4795939;29;20486;-75
2024/01/30 08:12:08;;;;;;;16.85;9.38;;;;;;;7.56;100.00;102320.28;4797168;29;20534;-74
2024/01/30 08:14:34;;;;;;;18.05;9.88;;;;;;;7.65;100.00;102321.13;4792849;29;20047;-74
2024/01/30 08:16:59;;;;;;;16.25;10.18;;;;;;;7.65;100.00;102326.69;4799562;29;20043;-76
2024/01/30 08:19:24;;;;;;;14.68;9.18;;;;;;;7.68;100.00;102328.84;4797643;29;20046;-75
2024/01/30 08:21:50;;;;;;;19.30;11.52;;;;;;;7.70;100.00;102323.78;4793475;29;20027;-74
2024/01/30 08:24:15;;;;;;;19.30;10.25;;;;;;;7.64;100.00;102328.66;4798153;29;20122;-75
2024/01/30 08:26:40;;;;;;;16.45;8.73;;;;;;;7.74;100.00;102322.00;4811458;29;20042;-75
2024/01/30 08:29:06;;;;;;;15.18;9.45;;;;;;;7.77;100.00;102326.91;4795685;29;20041;-75
2024/01/30 08:31:32;;;;;;;16.02;8.73;;;;;;;7.70;100.00;102330.16;4789235;29;20035;-75
2024/01/30 08:33:58;;;;;;;19.38;10.25;;;;;;;7.77;100.00;102332.47;4802297;29;20501;-75
2024/01/30 08:36:24;;;;;;;21.25;10.60;;;;;;;7.78;100.00;102330.50;4799776;29;20043;-75
2024/01/30 08:38:49;;;;;;;14.48;8.05;;;;;;;7.84;100.00;102332.84;4794824;29;20041;-75
2024/01/30 08:41:14;;;;;;;17.17;9.30;;;;;;;7.83;100.00;102333.97;4793186;29;20034;-75
2024/01/30 08:43:40;;;;;;;16.52;10.35;;;;;;;7.92;100.00;102345.94;4799303;29;20137;-75
2024/01/30 08:46:05;;;;;;;15.90;9.27;;;;;;;8.02;100.00;102338.44;4794177;29;20065;-75
2024/01/30 08:48:31;;;;;;;16.75;9.52;;;;;;;8.01;100.00;102342.38;4794655;29;20080;-75
2024/01/30 08:50:56;;;;;;;15.98;9.82;;;;;;;8.07;100.00;102338.28;4801144;29;20106;-75
2024/01/30 08:53:22;;;;;;;18.20;9.85;;;;;;;8.09;100.00;102333.22;4799946;29;20373;-75
2024/01/30 08:55:47;;;;;;;17.80;9.75;;;;;;;8.22;100.00;102335.06;4798427;29;20235;-75
2024/01/30 08:58:12;;;;;;;21.63;10.18;;;;;;;8.27;100.00;102340.47;4793119;29;20043;-75
2024/01/30 09:00:38;;;;;;;17.38;10.18;;;;;;;8.26;100.00;102349.16;4800162;29;20035;-74
2024/01/30 09:03:04;;;;;;;16.15;8.70;;;;;;;8.35;100.00;102344.41;4796125;29;20118;-74
2024/01/30 09:05:29;;;;;;;15.65;9.38;;;;;;;8.45;100.00;102346.88;4798850;29;20129;-76
2024/01/30 09:07:55;;;;;;;18.75;10.18;;;;;;;8.55;100.00;102345.75;4799058;29;20114;-75
2024/01/30 09:10:20;;;;;;;17.77;10.55;;;;;;;8.58;100.00;102345.13;4793366;29;20409;-76
2024/01/30 09:12:46;;;;;;;16.60;9.88;;;;;;;8.79;100.00;102345.28;4795404;29;20073;-76
2024/01/30 09:15:11;;;;;;;20.83;9.52;;;;;;;8.89;100.00;102349.69;4810705;29;20054;-76
2024/01/30 09:17:37;;;;;;;17.20;9.68;;;;;;;9.02;100.00;102348.66;4814639;29;20049;-77
2024/01/30 09:20:02;;;;;;;15.00;9.90;;;;;;;9.14;100.00;102346.00;4795312;29;20030;-78
2024/01/30 09:22:28;;;;;;;19.52;10.18;;;;;;;9.40;100.00;102347.91;4825378;29;20089;-77
2024/01/30 09:24:53;;;;;;;20.02;9.38;;;;;;;9.38;100.00;102347.41;4805416;29;20077;-77
2024/01/30 09:27:18;;;;;;;21.67;10.70;;;;;;;9.55;100.00;102355.75;4810973;29;20034;-77
2024/01/30 09:29:44;;;;;;;18.45;9.57;;;;;;;9.57;100.00;102353.44;4823950;29;20041;-77
2024/01/30 09:32:09;;;;;;;13.52;8.32;;;;;;;9.38;100.00;102349.41;4807110;29;20484;-77
2024/01/30 09:34:35;;;;;;;19.15;8.90;;;;;;;9.59;100.00;102338.31;4811052;29;20035;-78
2024/01/30 09:37:00;;;;;;;19.98;9.30;;;;;;;9.81;100.00;102354.81;4798036;29;20038;-78
2024/01/30 09:39:26;;;;;;;17.67;9.18;;;;;;;9.62;100.00;102354.44;4797287;29;20030;-77
2024/01/30 09:42:02;;;;;;;17.45;10.23;;;;;;;9.70;100.00;102350.78;4795958;29;20037;-77
2024/01/30 09:44:29;;;;;;;20.73;9.65;;;;;;;9.76;100.00;102353.03;4804217;29;20035;-78
2024/01/30 09:46:55;;;;;;;19.77;9.63;;;;;;;9.93;100.00;102354.13;4797135;29;20034;-77
2024/01/30 09:49:24;;;;;;;20.00;9.52;;;;;;;9.77;100.00;102359.44;4800600;29;20054;-78
2024/01/30 09:51:50;;;;;;;14.55;9.40;;;;;;;9.70;100.00;102356.38;4798592;29;20084;-78
2024/01/30 09:54:15;;;;;;;18.17;9.05;;;;;;;9.87;100.00;102358.25;4799741;29;20038;-79
2024/01/30 09:56:41;;;;;;;18.50;9.68;;;;;;;9.89;100.00;102347.56;4793807;29;20035;-78
2024/01/30 09:59:06;;;;;;;17.92;10.10;;;;;;;10.05;100.00;102353.38;4795444;29;20124;-79
2024/01/30 10:01:35;;;;;;;20.42;10.65;;;;;;;10.04;100.00;102365.72;4795569;29;20715;-78
2024/01/30 10:04:00;;;;;;;21.20;10.20;;;;;;;9.96;100.00;102354.25;4793621;29;20042;-77
2024/01/30 10:06:26;;;;;;;19.00;9.32;;;;;;;9.99;100.00;102369.53;4797723;29;20027;-78
2024/01/30 10:08:52;;;;;;;15.88;8.90;;;;;;;10.01;100.00;102370.00;4801257;29;20453;-78
2024/01/30 10:11:17;;;;;;;13.60;10.35;;;;;;;10.08;100.00;102373.09;4794397;29;20043;-76
2024/01/30 10:13:42;;;;;;;17.13;9.50;;;;;;;10.04;100.00;102360.13;4806937;29;20042;-77
2024/01/30 10:16:08;;;;;;;16.45;7.97;;;;;;;10.06;100.00;102361.44;4801547;29;20063;-78
2024/01/30 10:18:33;;;;;;;15.07;9.60;;;;;;;10.26;100.00;102362.59;4796444;29;20068;-78
2024/01/30 10:20:59;;;;;;;21.05;9.57;;;;;;;10.11;100.00;102361.22;4798882;29;20039;-78
2024/01/30 10:23:28;;;;;;;17.92;10.38;;;;;;;10.48;100.00;102369.09;4804998;29;20050;-77
2024/01/30 10:25:54;;;;;;;17.98;9.52;;;;;;;10.35;100.00;102377.41;4797484;29;20039;-76
2024/01/30 10:28:21;;;;;;;21.98;10.25;;;;;;;10.25;100.00;102366.59;4793578;29;20050;-75
2024/01/30 10:30:46;;;;;;;17.80;9.52;;;;;;;10.13;100.00;102378.50;4795972;29;20109;-76
2024/01/30 10:33:12;;;;;;;20.23;9.88;;;;;;;10.20;100.00;102369.56;4793413;29;20179;-76
2024/01/30 10:35:37;;;;;;;21.13;9.73;;;;;;;10.37;100.00;102369.50;4795327;29;20031;-76
2024/01/30 10:38:05;;;;;;;19.40;9.57;;;;;;;10.19;100.00;102367.94;4796910;29;20034;-75
2024/01/30 10:40:33;;;;;;;18.08;9.60;;;;;;;10.33;100.00;102376.09;4797542;29;20033;-76
2024/01/30 10:43:01;;;;;;;16.88;9.20;;;;;;;10.41;100.00;102374.41;4783177;29;20544;-76
2024/01/30 10:45:28;;;;;;;15.48;8.93;;;;;;;10.37;100.00;102375.09;4794265;29;20034;-76
2024/01/30 10:47:58;;;;;;;17.98;9.70;;;;;;;10.43;100.00;102386.06;4799509;29;20176;-76
2024/01/30 10:50:25;;;;;;;21.85;12.38;;;;;;;10.44;100.00;102382.94;4794825;29;20047;-76
2024/01/30 10:52:52;;;;;;;15.63;9.90;;;;;;;10.40;100.00;102383.97;4808240;29;20045;-76
2024/01/30 10:55:18;;;;;;;18.48;10.45;;;;;;;10.33;100.00;102385.31;4790269;29;20039;-76
2024/01/30 10:57:43;;;;;;;14.70;10.00;;;;;;;10.34;100.00;102374.94;4810268;29;20031;-76
2024/01/30 11:00:11;;;;;;;17.80;10.20;;;;;;;10.37;100.00;102380.69;4796780;29;20411;-77
2024/01/30 11:02:43;;;;;;;17.40;9.02;;;;;;;10.33;100.00;102388.13;4797153;29;20432;-76
2024/01/30 11:05:09;;;;;;;15.07;8.30;;;;;;;10.48;100.00;102380.28;4800868;29;20038;-77